sensor_id;sensor_type;location;lat;lon;timestamp;P1;durP1;ratioP1;P2;durP2;ratioP2
20721;SDS011;10522;52.198;9.890;2022-08-03T00:01:24;3.63;;;3.23;;
20721;SDS011;10522;52.198;9.890;2022-08-03T00:03:50;4.17;;;3.27;;
20721;SDS011;10522;52.198;9.890;2022-08-03T00:06:15;5.20;;;3.63;;
20721;SDS011;10522;52.198;9.890;2022-08-03T00:08:41;5.57;;;3.70;;
20721;SDS011;10522;52.198;9.890;2022-08-03T00:11:06;5.13;;;3.53;;
20721;SDS011;10522;52.198;9.890;2022-08-03T00:13:32;6.43;;;3.43;;
20721;SDS011;10522;52.198;9.890;2022-08-03T00:15:58;5.57;;;3.67;;
20721;SDS011;10522;52.198;9.890;2022-08-03T00:18:23;6.03;;;3.07;;
20721;SDS011;10522;52.198;9.890;2022-08-03T00:20:49;3.83;;;3.10;;
20721;SDS011;10522;52.198;9.890;2022-08-03T00:23:14;6.27;;;3.40;;
20721;SDS011;10522;52.198;9.890;2022-08-03T00:25:40;3.70;;;2.90;;
20721;SDS011;10522;52.198;9.890;2022-08-03T00:28:06;4.07;;;3.00;;
20721;SDS011;10522;52.198;9.890;2022-08-03T00:30:31;5.77;;;3.40;;
20721;SDS011;10522;52.198;9.890;2022-08-03T00:32:58;4.33;;;3.27;;
20721;SDS011;10522;52.198;9.890;2022-08-03T00:35:23;5.80;;;3.53;;
20721;SDS011;10522;52.198;9.890;2022-08-03T00:37:50;6.90;;;3.37;;
20721;SDS011;10522;52.198;9.890;2022-08-03T00:40:15;6.90;;;4.10;;
20721;SDS011;10522;52.198;9.890;2022-08-03T00:45:12;3.87;;;3.47;;
20721;SDS011;10522;52.198;9.890;2022-08-03T00:47:37;6.87;;;3.77;;
20721;SDS011;10522;52.198;9.890;2022-08-03T00:50:03;3.70;;;3.40;;
20721;SDS011;10522;52.198;9.890;2022-08-03T00:52:29;5.97;;;3.80;;
20721;SDS011;10522;52.198;9.890;2022-08-03T00:54:54;5.80;;;3.70;;
20721;SDS011;10522;52.198;9.890;2022-08-03T00:57:20;4.50;;;3.60;;
20721;SDS011;10522;52.198;9.890;2022-08-03T00:59:46;7.33;;;3.90;;
20721;SDS011;10522;52.198;9.890;2022-08-03T01:02:11;4.43;;;3.80;;
20721;SDS011;10522;52.198;9.890;2022-08-03T01:04:37;7.07;;;3.77;;
20721;SDS011;10522;52.198;9.890;2022-08-03T01:13:16;6.00;;;3.83;;
20721;SDS011;10522;52.198;9.890;2022-08-03T01:18:30;4.23;;;3.27;;
20721;SDS011;10522;52.198;9.890;2022-08-03T01:21:11;5.90;;;3.60;;
20721;SDS011;10522;52.198;9.890;2022-08-03T01:23:52;4.50;;;3.40;;
20721;SDS011;10522;52.198;9.890;2022-08-03T01:26:45;4.17;;;3.60;;
20721;SDS011;10522;52.198;9.890;2022-08-03T01:29:49;8.93;;;3.37;;
20721;SDS011;10522;52.198;9.890;2022-08-03T01:32:24;4.33;;;3.10;;
20721;SDS011;10522;52.198;9.890;2022-08-03T01:35:00;3.80;;;3.37;;
20721;SDS011;10522;52.198;9.890;2022-08-03T01:37:38;3.30;;;3.00;;
20721;SDS011;10522;52.198;9.890;2022-08-03T01:40:07;4.77;;;3.27;;
20721;SDS011;10522;52.198;9.890;2022-08-03T01:42:35;5.87;;;3.67;;
20721;SDS011;10522;52.198;9.890;2022-08-03T01:45:03;5.83;;;3.73;;
20721;SDS011;10522;52.198;9.890;2022-08-03T01:47:31;6.77;;;3.33;;
20721;SDS011;10522;52.198;9.890;2022-08-03T01:49:59;4.23;;;3.53;;
20721;SDS011;10522;52.198;9.890;2022-08-03T01:52:27;6.07;;;3.53;;
20721;SDS011;10522;52.198;9.890;2022-08-03T01:54:55;5.27;;;3.53;;
20721;SDS011;10522;52.198;9.890;2022-08-03T01:57:22;5.73;;;3.20;;
20721;SDS011;10522;52.198;9.890;2022-08-03T01:59:49;3.40;;;3.10;;
20721;SDS011;10522;52.198;9.890;2022-08-03T02:02:16;5.00;;;3.47;;
20721;SDS011;10522;52.198;9.890;2022-08-03T02:04:42;3.23;;;2.93;;
20721;SDS011;10522;52.198;9.890;2022-08-03T02:07:09;3.77;;;3.13;;
20721;SDS011;10522;52.198;9.890;2022-08-03T02:09:37;5.47;;;2.83;;
20721;SDS011;10522;52.198;9.890;2022-08-03T02:12:08;3.57;;;2.80;;
20721;SDS011;10522;52.198;9.890;2022-08-03T02:14:35;3.53;;;3.23;;
20721;SDS011;10522;52.198;9.890;2022-08-03T02:17:03;3.57;;;3.07;;
20721;SDS011;10522;52.198;9.890;2022-08-03T02:19:30;3.50;;;3.20;;
20721;SDS011;10522;52.198;9.890;2022-08-03T02:21:58;7.47;;;3.57;;
20721;SDS011;10522;52.198;9.890;2022-08-03T02:24:24;6.27;;;3.60;;
20721;SDS011;10522;52.198;9.890;2022-08-03T02:26:50;4.07;;;3.33;;
20721;SDS011;10522;52.198;9.890;2022-08-03T02:29:20;6.23;;;3.60;;
20721;SDS011;10522;52.198;9.890;2022-08-03T02:31:48;4.53;;;3.40;;
20721;SDS011;10522;52.198;9.890;2022-08-03T02:34:15;4.10;;;3.20;;
20721;SDS011;10522;52.198;9.890;2022-08-03T02:36:43;2.97;;;2.70;;
20721;SDS011;10522;52.198;9.890;2022-08-03T02:39:12;3.70;;;3.17;;
20721;SDS011;10522;52.198;9.890;2022-08-03T02:41:44;5.10;;;3.30;;
20721;SDS011;10522;52.198;9.890;2022-08-03T02:44:12;3.53;;;3.03;;
20721;SDS011;10522;52.198;9.890;2022-08-03T02:46:41;3.30;;;2.83;;
20721;SDS011;10522;52.198;9.890;2022-08-03T02:49:09;4.67;;;3.00;;
20721;SDS011;10522;52.198;9.890;2022-08-03T02:51:37;3.97;;;3.20;;
20721;SDS011;10522;52.198;9.890;2022-08-03T02:54:04;4.97;;;3.57;;
20721;SDS011;10522;52.198;9.890;2022-08-03T02:56:32;4.50;;;3.53;;
20721;SDS011;10522;52.198;9.890;2022-08-03T02:58:58;3.90;;;3.50;;
20721;SDS011;10522;52.198;9.890;2022-08-03T03:01:25;6.13;;;3.83;;
20721;SDS011;10522;52.198;9.890;2022-08-03T03:03:53;4.63;;;3.67;;
20721;SDS011;10522;52.198;9.890;2022-08-03T03:06:20;5.33;;;4.13;;
20721;SDS011;10522;52.198;9.890;2022-08-03T03:08:48;4.10;;;3.40;;
20721;SDS011;10522;52.198;9.890;2022-08-03T03:11:16;5.13;;;3.87;;
20721;SDS011;10522;52.198;9.890;2022-08-03T03:13:45;3.53;;;3.23;;
20721;SDS011;10522;52.198;9.890;2022-08-03T03:16:12;7.00;;;3.60;;
20721;SDS011;10522;52.198;9.890;2022-08-03T03:18:39;4.50;;;3.10;;
20721;SDS011;10522;52.198;9.890;2022-08-03T03:21:07;4.00;;;3.50;;
20721;SDS011;10522;52.198;9.890;2022-08-03T03:23:34;3.83;;;3.27;;
20721;SDS011;10522;52.198;9.890;2022-08-03T03:26:01;3.90;;;3.50;;
20721;SDS011;10522;52.198;9.890;2022-08-03T03:28:27;3.27;;;2.90;;
20721;SDS011;10522;52.198;9.890;2022-08-03T03:30:54;4.00;;;3.60;;
20721;SDS011;10522;52.198;9.890;2022-08-03T03:33:20;9.10;;;3.90;;
20721;SDS011;10522;52.198;9.890;2022-08-03T03:35:46;5.87;;;3.80;;
20721;SDS011;10522;52.198;9.890;2022-08-03T03:38:12;4.30;;;3.77;;
20721;SDS011;10522;52.198;9.890;2022-08-03T03:40:37;4.70;;;3.80;;
20721;SDS011;10522;52.198;9.890;2022-08-03T03:43:06;5.13;;;3.80;;
20721;SDS011;10522;52.198;9.890;2022-08-03T03:45:33;9.20;;;3.90;;
20721;SDS011;10522;52.198;9.890;2022-08-03T03:48:00;4.80;;;4.20;;
20721;SDS011;10522;52.198;9.890;2022-08-03T03:50:27;7.50;;;4.43;;
20721;SDS011;10522;52.198;9.890;2022-08-03T03:52:54;13.57;;;3.97;;
20721;SDS011;10522;52.198;9.890;2022-08-03T03:55:20;6.50;;;4.30;;
20721;SDS011;10522;52.198;9.890;2022-08-03T03:57:47;4.87;;;4.27;;
20721;SDS011;10522;52.198;9.890;2022-08-03T04:00:13;6.27;;;4.53;;
20721;SDS011;10522;52.198;9.890;2022-08-03T04:02:39;4.53;;;4.03;;
20721;SDS011;10522;52.198;9.890;2022-08-03T04:05:05;3.83;;;3.43;;
20721;SDS011;10522;52.198;9.890;2022-08-03T04:07:58;5.83;;;4.60;;
20721;SDS011;10522;52.198;9.890;2022-08-03T04:10:53;5.83;;;4.47;;
20721;SDS011;10522;52.198;9.890;2022-08-03T04:13:32;5.63;;;4.40;;
20721;SDS011;10522;52.198;9.890;2022-08-03T04:16:01;8.17;;;4.40;;
20721;SDS011;10522;52.198;9.890;2022-08-03T04:18:28;5.10;;;4.30;;
20721;SDS011;10522;52.198;9.890;2022-08-03T04:20:57;5.33;;;3.97;;
20721;SDS011;10522;52.198;9.890;2022-08-03T04:23:27;5.20;;;4.07;;
20721;SDS011;10522;52.198;9.890;2022-08-03T04:25:54;5.47;;;4.03;;
20721;SDS011;10522;52.198;9.890;2022-08-03T04:28:21;6.33;;;4.03;;
20721;SDS011;10522;52.198;9.890;2022-08-03T04:30:48;9.33;;;4.40;;
20721;SDS011;10522;52.198;9.890;2022-08-03T04:33:16;6.83;;;3.73;;
20721;SDS011;10522;52.198;9.890;2022-08-03T04:35:43;4.63;;;4.23;;
20721;SDS011;10522;52.198;9.890;2022-08-03T04:38:11;5.23;;;4.43;;
20721;SDS011;10522;52.198;9.890;2022-08-03T04:40:40;7.90;;;3.80;;
20721;SDS011;10522;52.198;9.890;2022-08-03T04:43:07;4.67;;;3.93;;
20721;SDS011;10522;52.198;9.890;2022-08-03T04:45:35;5.30;;;4.43;;
20721;SDS011;10522;52.198;9.890;2022-08-03T04:48:01;6.80;;;4.07;;
20721;SDS011;10522;52.198;9.890;2022-08-03T04:50:28;7.93;;;3.90;;
20721;SDS011;10522;52.198;9.890;2022-08-03T04:52:54;5.77;;;4.40;;
20721;SDS011;10522;52.198;9.890;2022-08-03T04:55:30;4.60;;;3.80;;
20721;SDS011;10522;52.198;9.890;2022-08-03T04:57:57;4.73;;;3.67;;
20721;SDS011;10522;52.198;9.890;2022-08-03T05:00:24;8.80;;;3.87;;
20721;SDS011;10522;52.198;9.890;2022-08-03T05:02:49;4.53;;;3.67;;
20721;SDS011;10522;52.198;9.890;2022-08-03T05:05:15;5.60;;;4.00;;
20721;SDS011;10522;52.198;9.890;2022-08-03T05:07:41;4.20;;;3.80;;
20721;SDS011;10522;52.198;9.890;2022-08-03T05:10:09;7.37;;;3.97;;
20721;SDS011;10522;52.198;9.890;2022-08-03T05:12:35;6.60;;;3.93;;
20721;SDS011;10522;52.198;9.890;2022-08-03T05:15:00;5.73;;;3.90;;
20721;SDS011;10522;52.198;9.890;2022-08-03T05:17:26;4.70;;;3.83;;
20721;SDS011;10522;52.198;9.890;2022-08-03T05:19:53;8.20;;;5.03;;
20721;SDS011;10522;52.198;9.890;2022-08-03T05:22:19;6.50;;;3.60;;
20721;SDS011;10522;52.198;9.890;2022-08-03T05:24:45;8.27;;;3.90;;
20721;SDS011;10522;52.198;9.890;2022-08-03T05:27:10;9.13;;;4.00;;
20721;SDS011;10522;52.198;9.890;2022-08-03T05:29:41;4.73;;;3.67;;
20721;SDS011;10522;52.198;9.890;2022-08-03T05:32:07;5.93;;;3.63;;
20721;SDS011;10522;52.198;9.890;2022-08-03T05:34:32;4.43;;;3.37;;
20721;SDS011;10522;52.198;9.890;2022-08-03T05:36:58;5.60;;;3.93;;
20721;SDS011;10522;52.198;9.890;2022-08-03T05:39:23;6.33;;;3.50;;
20721;SDS011;10522;52.198;9.890;2022-08-03T05:41:49;3.83;;;3.37;;
20721;SDS011;10522;52.198;9.890;2022-08-03T05:44:14;5.00;;;3.37;;
20721;SDS011;10522;52.198;9.890;2022-08-03T05:46:40;5.73;;;3.63;;
20721;SDS011;10522;52.198;9.890;2022-08-03T05:49:05;15.73;;;11.30;;
20721;SDS011;10522;52.198;9.890;2022-08-03T05:51:31;8.27;;;5.23;;
20721;SDS011;10522;52.198;9.890;2022-08-03T05:53:56;5.00;;;3.50;;
20721;SDS011;10522;52.198;9.890;2022-08-03T05:56:22;4.80;;;3.03;;
20721;SDS011;10522;52.198;9.890;2022-08-03T05:58:49;5.60;;;3.50;;
20721;SDS011;10522;52.198;9.890;2022-08-03T06:01:16;7.70;;;3.53;;
20721;SDS011;10522;52.198;9.890;2022-08-03T06:03:42;4.60;;;2.87;;
20721;SDS011;10522;52.198;9.890;2022-08-03T06:06:08;4.23;;;2.47;;
20721;SDS011;10522;52.198;9.890;2022-08-03T06:08:35;4.57;;;3.17;;
20721;SDS011;10522;52.198;9.890;2022-08-03T06:11:01;4.67;;;3.20;;
20721;SDS011;10522;52.198;9.890;2022-08-03T06:13:27;3.27;;;2.80;;
20721;SDS011;10522;52.198;9.890;2022-08-03T06:15:52;3.47;;;2.73;;
20721;SDS011;10522;52.198;9.890;2022-08-03T06:18:18;3.07;;;2.73;;
20721;SDS011;10522;52.198;9.890;2022-08-03T06:20:44;5.70;;;2.73;;
20721;SDS011;10522;52.198;9.890;2022-08-03T06:23:09;6.67;;;2.83;;
20721;SDS011;10522;52.198;9.890;2022-08-03T06:25:35;3.27;;;2.53;;
20721;SDS011;10522;52.198;9.890;2022-08-03T06:28:00;7.03;;;2.73;;
20721;SDS011;10522;52.198;9.890;2022-08-03T06:30:26;3.00;;;2.70;;
20721;SDS011;10522;52.198;9.890;2022-08-03T06:32:51;3.30;;;2.60;;
20721;SDS011;10522;52.198;9.890;2022-08-03T06:35:17;4.37;;;2.67;;
20721;SDS011;10522;52.198;9.890;2022-08-03T06:37:48;4.10;;;2.50;;
20721;SDS011;10522;52.198;9.890;2022-08-03T06:40:16;2.63;;;2.33;;
20721;SDS011;10522;52.198;9.890;2022-08-03T06:43:02;2.43;;;2.23;;
20721;SDS011;10522;52.198;9.890;2022-08-03T06:45:28;6.77;;;2.70;;
20721;SDS011;10522;52.198;9.890;2022-08-03T06:50:28;3.67;;;2.60;;
20721;SDS011;10522;52.198;9.890;2022-08-03T06:52:54;3.10;;;2.80;;
20721;SDS011;10522;52.198;9.890;2022-08-03T06:55:20;4.27;;;2.60;;
20721;SDS011;10522;52.198;9.890;2022-08-03T06:57:45;5.07;;;2.67;;
20721;SDS011;10522;52.198;9.890;2022-08-03T07:00:11;3.10;;;2.13;;
20721;SDS011;10522;52.198;9.890;2022-08-03T07:02:37;8.60;;;2.67;;
20721;SDS011;10522;52.198;9.890;2022-08-03T07:05:03;3.30;;;2.13;;
20721;SDS011;10522;52.198;9.890;2022-08-03T07:07:29;2.87;;;2.33;;
20721;SDS011;10522;52.198;9.890;2022-08-03T07:09:55;3.40;;;2.90;;
20721;SDS011;10522;52.198;9.890;2022-08-03T07:12:20;4.80;;;3.03;;
20721;SDS011;10522;52.198;9.890;2022-08-03T07:14:46;4.27;;;2.60;;
20721;SDS011;10522;52.198;9.890;2022-08-03T07:17:11;4.13;;;2.60;;
20721;SDS011;10522;52.198;9.890;2022-08-03T07:19:37;2.40;;;2.17;;
20721;SDS011;10522;52.198;9.890;2022-08-03T07:22:03;3.83;;;2.30;;
20721;SDS011;10522;52.198;9.890;2022-08-03T07:24:28;6.07;;;2.57;;
20721;SDS011;10522;52.198;9.890;2022-08-03T07:26:54;4.07;;;2.30;;
20721;SDS011;10522;52.198;9.890;2022-08-03T07:29:19;3.80;;;2.70;;
20721;SDS011;10522;52.198;9.890;2022-08-03T07:31:45;2.87;;;2.30;;
20721;SDS011;10522;52.198;9.890;2022-08-03T07:34:10;4.50;;;2.20;;
20721;SDS011;10522;52.198;9.890;2022-08-03T07:36:36;6.80;;;2.53;;
20721;SDS011;10522;52.198;9.890;2022-08-03T07:39:01;3.70;;;2.07;;
20721;SDS011;10522;52.198;9.890;2022-08-03T07:41:27;7.63;;;2.37;;
20721;SDS011;10522;52.198;9.890;2022-08-03T07:43:53;2.50;;;2.30;;
20721;SDS011;10522;52.198;9.890;2022-08-03T07:46:19;2.20;;;2.00;;
20721;SDS011;10522;52.198;9.890;2022-08-03T07:48:44;2.87;;;2.10;;
20721;SDS011;10522;52.198;9.890;2022-08-03T07:51:10;3.33;;;1.90;;
20721;SDS011;10522;52.198;9.890;2022-08-03T07:53:35;3.80;;;2.83;;
20721;SDS011;10522;52.198;9.890;2022-08-03T07:56:00;3.23;;;2.20;;
20721;SDS011;10522;52.198;9.890;2022-08-03T07:58:26;8.47;;;2.10;;
20721;SDS011;10522;52.198;9.890;2022-08-03T08:00:51;2.10;;;1.90;;
20721;SDS011;10522;52.198;9.890;2022-08-03T08:03:17;3.53;;;2.17;;
20721;SDS011;10522;52.198;9.890;2022-08-03T08:05:43;3.23;;;2.07;;
20721;SDS011;10522;52.198;9.890;2022-08-03T08:08:08;4.17;;;2.07;;
20721;SDS011;10522;52.198;9.890;2022-08-03T08:10:34;2.40;;;1.80;;
20721;SDS011;10522;52.198;9.890;2022-08-03T08:13:00;1.70;;;1.60;;
20721;SDS011;10522;52.198;9.890;2022-08-03T08:15:26;2.23;;;2.00;;
20721;SDS011;10522;52.198;9.890;2022-08-03T08:17:52;1.97;;;1.80;;
20721;SDS011;10522;52.198;9.890;2022-08-03T08:20:21;6.90;;;2.60;;
20721;SDS011;10522;52.198;9.890;2022-08-03T08:22:48;2.47;;;2.17;;
20721;SDS011;10522;52.198;9.890;2022-08-03T08:25:14;2.40;;;2.20;;
20721;SDS011;10522;52.198;9.890;2022-08-03T08:27:40;2.77;;;2.20;;
20721;SDS011;10522;52.198;9.890;2022-08-03T08:30:10;4.87;;;2.60;;
20721;SDS011;10522;52.198;9.890;2022-08-03T08:32:37;5.77;;;2.13;;
20721;SDS011;10522;52.198;9.890;2022-08-03T08:35:03;5.80;;;2.43;;
20721;SDS011;10522;52.198;9.890;2022-08-03T08:37:29;2.30;;;2.10;;
20721;SDS011;10522;52.198;9.890;2022-08-03T08:39:55;5.60;;;2.10;;
20721;SDS011;10522;52.198;9.890;2022-08-03T08:42:21;4.33;;;2.30;;
20721;SDS011;10522;52.198;9.890;2022-08-03T08:44:47;4.97;;;2.40;;
20721;SDS011;10522;52.198;9.890;2022-08-03T08:47:13;6.00;;;1.77;;
20721;SDS011;10522;52.198;9.890;2022-08-03T08:49:39;3.03;;;2.00;;
20721;SDS011;10522;52.198;9.890;2022-08-03T08:52:07;3.40;;;1.80;;
20721;SDS011;10522;52.198;9.890;2022-08-03T08:54:32;4.23;;;1.90;;
20721;SDS011;10522;52.198;9.890;2022-08-03T08:57:01;2.87;;;2.13;;
20721;SDS011;10522;52.198;9.890;2022-08-03T08:59:28;4.30;;;2.37;;
20721;SDS011;10522;52.198;9.890;2022-08-03T09:01:57;1.77;;;1.60;;
20721;SDS011;10522;52.198;9.890;2022-08-03T09:04:23;1.90;;;1.57;;
20721;SDS011;10522;52.198;9.890;2022-08-03T09:06:49;3.60;;;1.57;;
20721;SDS011;10522;52.198;9.890;2022-08-03T09:09:16;4.07;;;1.50;;
20721;SDS011;10522;52.198;9.890;2022-08-03T09:11:41;5.03;;;1.60;;
20721;SDS011;10522;52.198;9.890;2022-08-03T09:14:08;2.60;;;1.30;;
20721;SDS011;10522;52.198;9.890;2022-08-03T09:16:34;4.77;;;1.97;;
20721;SDS011;10522;52.198;9.890;2022-08-03T09:19:10;3.43;;;1.30;;
20721;SDS011;10522;52.198;9.890;2022-08-03T09:21:38;3.17;;;1.83;;
20721;SDS011;10522;52.198;9.890;2022-08-03T09:24:04;4.27;;;2.40;;
20721;SDS011;10522;52.198;9.890;2022-08-03T09:26:31;5.57;;;2.33;;
20721;SDS011;10522;52.198;9.890;2022-08-03T09:29:08;4.57;;;2.20;;
20721;SDS011;10522;52.198;9.890;2022-08-03T09:31:36;4.03;;;2.27;;
20721;SDS011;10522;52.198;9.890;2022-08-03T09:34:05;2.50;;;2.30;;
20721;SDS011;10522;52.198;9.890;2022-08-03T09:36:43;3.47;;;2.23;;
20721;SDS011;10522;52.198;9.890;2022-08-03T09:39:10;4.93;;;2.60;;
20721;SDS011;10522;52.198;9.890;2022-08-03T09:41:41;2.03;;;1.83;;
20721;SDS011;10522;52.198;9.890;2022-08-03T09:44:08;2.73;;;2.20;;
20721;SDS011;10522;52.198;9.890;2022-08-03T09:46:50;2.47;;;2.27;;
20721;SDS011;10522;52.198;9.890;2022-08-03T09:49:16;3.43;;;2.33;;
20721;SDS011;10522;52.198;9.890;2022-08-03T09:51:42;5.57;;;3.10;;
20721;SDS011;10522;52.198;9.890;2022-08-03T09:54:09;5.07;;;2.80;;
20721;SDS011;10522;52.198;9.890;2022-08-03T09:56:38;6.03;;;2.87;;
20721;SDS011;10522;52.198;9.890;2022-08-03T09:59:05;5.20;;;2.80;;
20721;SDS011;10522;52.198;9.890;2022-08-03T10:01:31;3.27;;;2.30;;
20721;SDS011;10522;52.198;9.890;2022-08-03T10:04:01;4.73;;;2.73;;
20721;SDS011;10522;52.198;9.890;2022-08-03T10:06:27;2.50;;;2.30;;
20721;SDS011;10522;52.198;9.890;2022-08-03T10:09:08;3.93;;;2.57;;
20721;SDS011;10522;52.198;9.890;2022-08-03T10:11:39;3.00;;;2.20;;
20721;SDS011;10522;52.198;9.890;2022-08-03T10:14:07;4.27;;;2.10;;
20721;SDS011;10522;52.198;9.890;2022-08-03T10:16:37;2.93;;;2.00;;
20721;SDS011;10522;52.198;9.890;2022-08-03T10:19:04;2.30;;;2.07;;
20721;SDS011;10522;52.198;9.890;2022-08-03T10:21:33;4.93;;;2.50;;
20721;SDS011;10522;52.198;9.890;2022-08-03T10:24:04;2.43;;;2.23;;
20721;SDS011;10522;52.198;9.890;2022-08-03T10:26:32;2.60;;;2.40;;
20721;SDS011;10522;52.198;9.890;2022-08-03T10:29:01;2.20;;;1.90;;
20721;SDS011;10522;52.198;9.890;2022-08-03T10:31:30;2.90;;;2.33;;
20721;SDS011;10522;52.198;9.890;2022-08-03T10:34:02;3.23;;;2.47;;
20721;SDS011;10522;52.198;9.890;2022-08-03T10:36:30;2.63;;;1.87;;
20721;SDS011;10522;52.198;9.890;2022-08-03T10:38:59;2.47;;;2.27;;
20721;SDS011;10522;52.198;9.890;2022-08-03T10:41:29;2.53;;;2.33;;
20721;SDS011;10522;52.198;9.890;2022-08-03T10:44:02;3.07;;;2.73;;
20721;SDS011;10522;52.198;9.890;2022-08-03T10:46:32;2.80;;;2.53;;
20721;SDS011;10522;52.198;9.890;2022-08-03T10:48:59;2.70;;;2.20;;
20721;SDS011;10522;52.198;9.890;2022-08-03T10:51:25;3.73;;;2.03;;
20721;SDS011;10522;52.198;9.890;2022-08-03T10:53:55;2.10;;;2.00;;
20721;SDS011;10522;52.198;9.890;2022-08-03T10:59:19;3.17;;;2.33;;
20721;SDS011;10522;52.198;9.890;2022-08-03T11:02:09;2.37;;;2.17;;
20721;SDS011;10522;52.198;9.890;2022-08-03T11:04:36;4.30;;;2.43;;
20721;SDS011;10522;52.198;9.890;2022-08-03T11:09:43;2.83;;;2.63;;
20721;SDS011;10522;52.198;9.890;2022-08-03T11:12:27;3.10;;;2.80;;
20721;SDS011;10522;52.198;9.890;2022-08-03T11:14:57;2.50;;;2.30;;
20721;SDS011;10522;52.198;9.890;2022-08-03T11:17:24;6.70;;;2.53;;
20721;SDS011;10522;52.198;9.890;2022-08-03T11:19:51;2.50;;;2.30;;
20721;SDS011;10522;52.198;9.890;2022-08-03T11:22:17;3.87;;;2.70;;
20721;SDS011;10522;52.198;9.890;2022-08-03T11:40:34;3.07;;;2.27;;
20721;SDS011;10522;52.198;9.890;2022-08-03T11:48:48;2.60;;;2.40;;
20721;SDS011;10522;52.198;9.890;2022-08-03T11:51:25;4.63;;;2.43;;
20721;SDS011;10522;52.198;9.890;2022-08-03T11:53:56;3.30;;;2.50;;
20721;SDS011;10522;52.198;9.890;2022-08-03T11:56:25;3.37;;;2.57;;
20721;SDS011;10522;52.198;9.890;2022-08-03T11:58:53;3.47;;;2.40;;
20721;SDS011;10522;52.198;9.890;2022-08-03T12:01:20;3.87;;;2.53;;
20721;SDS011;10522;52.198;9.890;2022-08-03T12:03:47;2.53;;;2.33;;
20721;SDS011;10522;52.198;9.890;2022-08-03T12:06:14;2.60;;;2.03;;
20721;SDS011;10522;52.198;9.890;2022-08-03T12:08:41;2.63;;;2.43;;
20721;SDS011;10522;52.198;9.890;2022-08-03T12:11:09;3.33;;;3.03;;
20721;SDS011;10522;52.198;9.890;2022-08-03T12:13:37;3.20;;;2.43;;
20721;SDS011;10522;52.198;9.890;2022-08-03T12:16:04;2.70;;;2.50;;
20721;SDS011;10522;52.198;9.890;2022-08-03T12:18:29;3.10;;;2.80;;
20721;SDS011;10522;52.198;9.890;2022-08-03T12:21:06;2.70;;;2.50;;
20721;SDS011;10522;52.198;9.890;2022-08-03T12:23:34;3.70;;;2.40;;
20721;SDS011;10522;52.198;9.890;2022-08-03T12:26:04;5.73;;;2.67;;
20721;SDS011;10522;52.198;9.890;2022-08-03T12:28:31;2.80;;;2.50;;
20721;SDS011;10522;52.198;9.890;2022-08-03T12:31:00;4.07;;;2.40;;
20721;SDS011;10522;52.198;9.890;2022-08-03T12:33:54;2.50;;;2.30;;
20721;SDS011;10522;52.198;9.890;2022-08-03T12:36:27;3.40;;;2.20;;
20721;SDS011;10522;52.198;9.890;2022-08-03T12:38:55;2.70;;;2.50;;
20721;SDS011;10522;52.198;9.890;2022-08-03T12:41:29;5.10;;;4.60;;
20721;SDS011;10522;52.198;9.890;2022-08-03T12:43:57;7.13;;;5.23;;
20721;SDS011;10522;52.198;9.890;2022-08-03T12:46:27;4.50;;;2.57;;
20721;SDS011;10522;52.198;9.890;2022-08-03T12:48:59;3.43;;;2.20;;
20721;SDS011;10522;52.198;9.890;2022-08-03T12:51:27;4.27;;;2.67;;
20721;SDS011;10522;52.198;9.890;2022-08-03T12:53:53;2.67;;;2.47;;
20721;SDS011;10522;52.198;9.890;2022-08-03T12:56:20;2.60;;;2.40;;
20721;SDS011;10522;52.198;9.890;2022-08-03T12:58:45;2.80;;;2.60;;
20721;SDS011;10522;52.198;9.890;2022-08-03T13:01:17;2.73;;;2.53;;
20721;SDS011;10522;52.198;9.890;2022-08-03T13:03:46;4.53;;;2.37;;
20721;SDS011;10522;52.198;9.890;2022-08-03T13:06:13;3.00;;;2.70;;
20721;SDS011;10522;52.198;9.890;2022-08-03T13:08:40;3.63;;;2.50;;
20721;SDS011;10522;52.198;9.890;2022-08-03T13:11:23;2.63;;;2.43;;
20721;SDS011;10522;52.198;9.890;2022-08-03T13:13:51;5.00;;;2.67;;
20721;SDS011;10522;52.198;9.890;2022-08-03T13:16:17;2.53;;;2.33;;
20721;SDS011;10522;52.198;9.890;2022-08-03T13:18:45;5.67;;;3.20;;
20721;SDS011;10522;52.198;9.890;2022-08-03T13:21:15;4.73;;;2.30;;
20721;SDS011;10522;52.198;9.890;2022-08-03T13:23:41;4.77;;;2.83;;
20721;SDS011;10522;52.198;9.890;2022-08-03T13:26:07;4.70;;;2.80;;
20721;SDS011;10522;52.198;9.890;2022-08-03T13:28:33;4.63;;;2.60;;
20721;SDS011;10522;52.198;9.890;2022-08-03T13:31:02;3.07;;;2.77;;
20721;SDS011;10522;52.198;9.890;2022-08-03T13:33:28;3.83;;;2.30;;
20721;SDS011;10522;52.198;9.890;2022-08-03T13:35:56;4.47;;;2.40;;
20721;SDS011;10522;52.198;9.890;2022-08-03T13:38:22;2.67;;;2.27;;
20721;SDS011;10522;52.198;9.890;2022-08-03T13:40:49;3.40;;;2.30;;
20721;SDS011;10522;52.198;9.890;2022-08-03T13:43:16;3.43;;;3.13;;
20721;SDS011;10522;52.198;9.890;2022-08-03T13:45:41;3.90;;;3.47;;
20721;SDS011;10522;52.198;9.890;2022-08-03T13:48:07;3.23;;;2.50;;
20721;SDS011;10522;52.198;9.890;2022-08-03T13:50:32;2.67;;;2.47;;
20721;SDS011;10522;52.198;9.890;2022-08-03T13:52:57;2.73;;;2.50;;
20721;SDS011;10522;52.198;9.890;2022-08-03T13:55:23;2.57;;;2.37;;
20721;SDS011;10522;52.198;9.890;2022-08-03T13:57:49;5.87;;;2.77;;
20721;SDS011;10522;52.198;9.890;2022-08-03T14:00:15;4.97;;;2.57;;
20721;SDS011;10522;52.198;9.890;2022-08-03T14:02:42;4.60;;;2.50;;
20721;SDS011;10522;52.198;9.890;2022-08-03T14:05:08;2.97;;;2.70;;
20721;SDS011;10522;52.198;9.890;2022-08-03T14:07:33;3.57;;;2.30;;
20721;SDS011;10522;52.198;9.890;2022-08-03T14:09:59;2.70;;;2.33;;
20721;SDS011;10522;52.198;9.890;2022-08-03T14:12:25;2.67;;;2.47;;
20721;SDS011;10522;52.198;9.890;2022-08-03T14:14:51;3.07;;;2.73;;
20721;SDS011;10522;52.198;9.890;2022-08-03T14:17:17;3.53;;;2.60;;
20721;SDS011;10522;52.198;9.890;2022-08-03T14:19:42;4.33;;;2.50;;
20721;SDS011;10522;52.198;9.890;2022-08-03T14:22:08;4.00;;;3.60;;
20721;SDS011;10522;52.198;9.890;2022-08-03T14:24:33;4.53;;;2.77;;
20721;SDS011;10522;52.198;9.890;2022-08-03T14:26:59;2.20;;;2.00;;
20721;SDS011;10522;52.198;9.890;2022-08-03T14:29:24;3.00;;;2.57;;
20721;SDS011;10522;52.198;9.890;2022-08-03T14:31:50;3.70;;;2.93;;
20721;SDS011;10522;52.198;9.890;2022-08-03T14:34:15;4.30;;;2.17;;
20721;SDS011;10522;52.198;9.890;2022-08-03T14:36:41;2.37;;;2.17;;
20721;SDS011;10522;52.198;9.890;2022-08-03T14:39:07;3.07;;;2.43;;
20721;SDS011;10522;52.198;9.890;2022-08-03T14:41:32;4.73;;;2.43;;
20721;SDS011;10522;52.198;9.890;2022-08-03T14:43:58;3.60;;;2.53;;
20721;SDS011;10522;52.198;9.890;2022-08-03T14:46:23;4.07;;;2.60;;
20721;SDS011;10522;52.198;9.890;2022-08-03T14:48:49;3.27;;;2.40;;
20721;SDS011;10522;52.198;9.890;2022-08-03T14:51:14;4.60;;;2.70;;
20721;SDS011;10522;52.198;9.890;2022-08-03T14:53:40;5.23;;;2.87;;
20721;SDS011;10522;52.198;9.890;2022-08-03T14:56:05;5.80;;;4.47;;
20721;SDS011;10522;52.198;9.890;2022-08-03T14:58:31;2.93;;;2.73;;
20721;SDS011;10522;52.198;9.890;2022-08-03T15:00:57;3.70;;;2.77;;
20721;SDS011;10522;52.198;9.890;2022-08-03T15:03:23;3.13;;;2.40;;
20721;SDS011;10522;52.198;9.890;2022-08-03T15:05:49;3.77;;;2.60;;
20721;SDS011;10522;52.198;9.890;2022-08-03T15:08:19;3.37;;;2.50;;
20721;SDS011;10522;52.198;9.890;2022-08-03T15:10:45;2.67;;;2.20;;
20721;SDS011;10522;52.198;9.890;2022-08-03T15:13:11;3.33;;;2.70;;
20721;SDS011;10522;52.198;9.890;2022-08-03T15:15:37;3.53;;;2.40;;
20721;SDS011;10522;52.198;9.890;2022-08-03T15:18:03;4.50;;;2.50;;
20721;SDS011;10522;52.198;9.890;2022-08-03T15:20:28;3.70;;;2.40;;
20721;SDS011;10522;52.198;9.890;2022-08-03T15:22:54;2.23;;;2.10;;
20721;SDS011;10522;52.198;9.890;2022-08-03T15:25:19;2.90;;;2.70;;
20721;SDS011;10522;52.198;9.890;2022-08-03T15:27:47;3.47;;;2.43;;
20721;SDS011;10522;52.198;9.890;2022-08-03T15:30:12;2.80;;;2.30;;
20721;SDS011;10522;52.198;9.890;2022-08-03T15:32:38;2.13;;;1.90;;